sensor_id;sensor_type;location;lat;lon;timestamp;pressure;altitude;pressure_sealevel;temperature;humidity
64821;BME280;51256;55.654;37.264;2022-10-20T00:01:03;98598.06;;;6.83;73.55
64821;BME280;51256;55.654;37.264;2022-10-20T00:03:29;98603.50;;;6.81;74.06
64821;BME280;51256;55.654;37.264;2022-10-20T00:06:05;98611.00;;;6.86;73.52
64821;BME280;51256;55.654;37.264;2022-10-20T00:08:31;98598.66;;;6.77;73.27
64821;BME280;51256;55.654;37.264;2022-10-20T00:10:56;98613.22;;;6.81;73.51
64821;BME280;51256;55.654;37.264;2022-10-20T00:13:23;98608.53;;;6.75;73.07
64821;BME280;51256;55.654;37.264;2022-10-20T00:15:52;98618.38;;;6.73;73.28
64821;BME280;51256;55.654;37.264;2022-10-20T00:18:18;98622.13;;;6.70;72.98
64821;BME280;51256;55.654;37.264;2022-10-20T00:20:45;98609.75;;;6.61;72.85
64821;BME280;51256;55.654;37.264;2022-10-20T00:23:10;98624.91;;;6.69;72.68
64821;BME280;51256;55.654;37.264;2022-10-20T00:25:36;98627.56;;;6.69;72.52
64821;BME280;51256;55.654;37.264;2022-10-20T00:28:01;98627.56;;;6.69;72.01
64821;BME280;51256;55.654;37.264;2022-10-20T00:30:27;98633.63;;;6.69;72.50
64821;BME280;51256;55.654;37.264;2022-10-20T00:32:52;98640.75;;;6.69;72.60
64821;BME280;51256;55.654;37.264;2022-10-20T00:35:18;98648.22;;;6.73;72.24
64821;BME280;51256;55.654;37.264;2022-10-20T00:37:43;98645.44;;;6.75;72.42
64821;BME280;51256;55.654;37.264;2022-10-20T00:40:09;98643.78;;;6.74;72.52
64821;BME280;51256;55.654;37.264;2022-10-20T00:42:35;98654.03;;;6.77;72.42
64821;BME280;51256;55.654;37.264;2022-10-20T00:45:01;98655.84;;;6.76;72.37
64821;BME280;51256;55.654;37.264;2022-10-20T00:47:34;98663.78;;;6.76;72.83
64821;BME280;51256;55.654;37.264;2022-10-20T00:50:05;98661.28;;;6.75;72.92
64821;BME280;51256;55.654;37.264;2022-10-20T00:52:32;98667.38;;;6.75;72.59
64821;BME280;51256;55.654;37.264;2022-10-20T00:54:59;98670.16;;;6.74;72.58
64821;BME280;51256;55.654;37.264;2022-10-20T00:57:25;98665.16;;;6.71;72.92
64821;BME280;51256;55.654;37.264;2022-10-20T00:59:51;98666.97;;;6.70;72.49
64821;BME280;51256;55.654;37.264;2022-10-20T01:02:16;98666.41;;;6.67;73.02
64821;BME280;51256;55.654;37.264;2022-10-20T01:04:42;98668.91;;;6.58;72.55
64821;BME280;51256;55.654;37.264;2022-10-20T01:07:08;98675.28;;;6.56;73.20
64821;BME280;51256;55.654;37.264;2022-10-20T01:09:34;98677.09;;;6.55;72.91
64821;BME280;51256;55.654;37.264;2022-10-20T01:20:02;98688.34;;;6.57;73.05
64821;BME280;51256;55.654;37.264;2022-10-20T01:28:06;98695.38;;;6.47;73.34
64821;BME280;51256;55.654;37.264;2022-10-20T01:30:43;98697.34;;;6.45;73.17
64821;BME280;51256;55.654;37.264;2022-10-20T01:33:30;98702.47;;;6.46;73.04
64821;BME280;51256;55.654;37.264;2022-10-20T01:36:27;98696.25;;;6.47;73.05
64821;BME280;51256;55.654;37.264;2022-10-20T01:39:11;98698.84;;;6.38;73.35
64821;BME280;51256;55.654;37.264;2022-10-20T01:41:57;98692.19;;;6.24;73.59
64821;BME280;51256;55.654;37.264;2022-10-20T01:44:26;98697.84;;;6.19;73.44
64821;BME280;51256;55.654;37.264;2022-10-20T01:46:54;98715.34;;;6.20;74.02
64821;BME280;51256;55.654;37.264;2022-10-20T01:49:22;98715.47;;;6.19;73.96
64821;BME280;51256;55.654;37.264;2022-10-20T01:51:48;98717.25;;;6.18;73.56
64821;BME280;51256;55.654;37.264;2022-10-20T01:54:25;98727.66;;;6.20;74.57
64821;BME280;51256;55.654;37.264;2022-10-20T02:05:02;98715.59;;;6.07;74.49
64821;BME280;51256;55.654;37.264;2022-10-20T02:07:35;98736.41;;;6.20;73.90
64821;BME280;51256;55.654;37.264;2022-10-20T02:10:28;98738.34;;;6.18;74.36
64821;BME280;51256;55.654;37.264;2022-10-20T02:12:59;98748.19;;;6.16;74.78
64821;BME280;51256;55.654;37.264;2022-10-20T02:15:27;98750.38;;;6.11;74.76
64821;BME280;51256;55.654;37.264;2022-10-20T02:17:59;98742.38;;;6.12;74.17
64821;BME280;51256;55.654;37.264;2022-10-20T02:20:28;98760.38;;;6.17;74.75
64821;BME280;51256;55.654;37.264;2022-10-20T02:22:57;98758.75;;;6.16;74.26
64821;BME280;51256;55.654;37.264;2022-10-20T02:25:24;98753.34;;;6.18;74.58
64821;BME280;51256;55.654;37.264;2022-10-20T02:27:50;98764.31;;;6.23;74.65
64821;BME280;51256;55.654;37.264;2022-10-20T02:30:18;98761.81;;;6.21;74.59
64821;BME280;51256;55.654;37.264;2022-10-20T02:32:46;98768.34;;;6.27;74.27
64821;BME280;51256;55.654;37.264;2022-10-20T02:35:17;98774.13;;;6.21;74.30
64821;BME280;51256;55.654;37.264;2022-10-20T02:37:43;98771.78;;;6.18;74.78
64821;BME280;51256;55.654;37.264;2022-10-20T02:40:09;98783.44;;;6.15;74.82
64821;BME280;51256;55.654;37.264;2022-10-20T02:42:35;98766.31;;;6.09;74.79
64821;BME280;51256;55.654;37.264;2022-10-20T02:45:02;98788.41;;;6.18;74.78
64821;BME280;51256;55.654;37.264;2022-10-20T02:47:27;98778.44;;;6.22;74.61
64821;BME280;51256;55.654;37.264;2022-10-20T02:49:56;98787.63;;;6.27;74.28
64821;BME280;51256;55.654;37.264;2022-10-20T02:52:21;98791.50;;;6.23;74.77
64821;BME280;51256;55.654;37.264;2022-10-20T02:54:47;98792.72;;;6.19;74.83
64821;BME280;51256;55.654;37.264;2022-10-20T02:57:12;98791.91;;;6.19;74.23
64821;BME280;51256;55.654;37.264;2022-10-20T02:59:38;98806.00;;;6.08;74.41
64821;BME280;51256;55.654;37.264;2022-10-20T03:02:03;98796.28;;;5.87;75.33
64821;BME280;51256;55.654;37.264;2022-10-20T03:04:28;98803.44;;;5.75;75.09
64821;BME280;51256;55.654;37.264;2022-10-20T03:06:54;98803.50;;;5.64;75.59
64821;BME280;51256;55.654;37.264;2022-10-20T03:09:19;98818.47;;;5.63;75.77
64821;BME280;51256;55.654;37.264;2022-10-20T03:11:45;98811.34;;;5.54;76.17
64821;BME280;51256;55.654;37.264;2022-10-20T03:14:10;98825.22;;;5.56;76.58
64821;BME280;51256;55.654;37.264;2022-10-20T03:16:36;98830.63;;;5.55;76.56
64821;BME280;51256;55.654;37.264;2022-10-20T03:19:02;98825.59;;;5.51;76.65
64821;BME280;51256;55.654;37.264;2022-10-20T03:21:27;98824.06;;;5.49;76.97
64821;BME280;51256;55.654;37.264;2022-10-20T03:23:53;98823.22;;;5.48;76.94
64821;BME280;51256;55.654;37.264;2022-10-20T03:26:19;98835.16;;;5.52;77.02
64821;BME280;51256;55.654;37.264;2022-10-20T03:28:44;98833.81;;;5.58;76.99
64821;BME280;51256;55.654;37.264;2022-10-20T03:31:10;98837.38;;;5.68;77.14
64821;BME280;51256;55.654;37.264;2022-10-20T03:33:36;98850.84;;;5.75;76.69
64821;BME280;51256;55.654;37.264;2022-10-20T03:36:02;98841.53;;;5.71;76.72
64821;BME280;51256;55.654;37.264;2022-10-20T03:38:27;98845.00;;;5.72;76.83
64821;BME280;51256;55.654;37.264;2022-10-20T03:40:53;98848.34;;;5.74;76.55
64821;BME280;51256;55.654;37.264;2022-10-20T03:43:18;98838.56;;;5.64;76.87
64821;BME280;51256;55.654;37.264;2022-10-20T03:45:44;98855.81;;;5.68;77.17
64821;BME280;51256;55.654;37.264;2022-10-20T03:48:10;98846.47;;;5.64;77.12
64821;BME280;51256;55.654;37.264;2022-10-20T03:50:40;98865.81;;;5.75;77.43
64821;BME280;51256;55.654;37.264;2022-10-20T03:53:07;98860.41;;;5.76;76.79
64821;BME280;51256;55.654;37.264;2022-10-20T03:55:33;98871.78;;;5.77;76.58
64821;BME280;51256;55.654;37.264;2022-10-20T03:57:58;98870.09;;;5.76;77.04
64821;BME280;51256;55.654;37.264;2022-10-20T04:00:24;98872.50;;;5.79;77.09
64821;BME280;51256;55.654;37.264;2022-10-20T04:02:49;98868.91;;;5.80;77.43
64821;BME280;51256;55.654;37.264;2022-10-20T04:05:18;98874.28;;;5.78;77.23
64821;BME280;51256;55.654;37.264;2022-10-20T04:07:44;98868.19;;;5.78;77.65
64821;BME280;51256;55.654;37.264;2022-10-20T04:10:14;98872.22;;;5.82;77.30
64821;BME280;51256;55.654;37.264;2022-10-20T04:12:40;98881.66;;;5.84;77.30
64821;BME280;51256;55.654;37.264;2022-10-20T04:15:06;98879.31;;;5.81;77.04
64821;BME280;51256;55.654;37.264;2022-10-20T04:17:32;98881.22;;;5.79;77.50
64821;BME280;51256;55.654;37.264;2022-10-20T04:19:57;98892.03;;;5.76;77.21
64821;BME280;51256;55.654;37.264;2022-10-20T04:22:23;98890.84;;;5.69;77.46
64821;BME280;51256;55.654;37.264;2022-10-20T04:24:49;98894.59;;;5.66;77.69
64821;BME280;51256;55.654;37.264;2022-10-20T04:27:14;98895.81;;;5.62;77.97
64821;BME280;51256;55.654;37.264;2022-10-20T04:29:39;98899.63;;;5.58;77.76
64821;BME280;51256;55.654;37.264;2022-10-20T04:32:05;98902.28;;;5.58;77.91
64821;BME280;51256;55.654;37.264;2022-10-20T04:34:31;98910.75;;;5.62;77.76
64821;BME280;51256;55.654;37.264;2022-10-20T04:36:56;98907.03;;;5.64;77.85
64821;BME280;51256;55.654;37.264;2022-10-20T04:39:22;98908.56;;;5.67;77.84
64821;BME280;51256;55.654;37.264;2022-10-20T04:41:47;98911.69;;;5.72;77.65
64821;BME280;51256;55.654;37.264;2022-10-20T04:44:13;98909.50;;;5.77;77.38
64821;BME280;51256;55.654;37.264;2022-10-20T04:46:39;98913.56;;;5.81;77.17
64821;BME280;51256;55.654;37.264;2022-10-20T04:49:04;98916.06;;;5.83;77.33
64821;BME280;51256;55.654;37.264;2022-10-20T04:51:30;98924.53;;;5.87;77.49
64821;BME280;51256;55.654;37.264;2022-10-20T04:53:55;98923.22;;;5.92;77.43
64821;BME280;51256;55.654;37.264;2022-10-20T04:56:21;98935.78;;;6.00;76.77
64821;BME280;51256;55.654;37.264;2022-10-20T04:58:54;98917.09;;;5.92;77.40
64821;BME280;51256;55.654;37.264;2022-10-20T05:01:22;98940.41;;;5.96;76.70
64821;BME280;51256;55.654;37.264;2022-10-20T05:03:49;98936.38;;;5.92;77.05
64821;BME280;51256;55.654;37.264;2022-10-20T05:06:17;98948.97;;;5.89;77.32
64821;BME280;51256;55.654;37.264;2022-10-20T05:08:44;98953.00;;;5.93;77.15
64821;BME280;51256;55.654;37.264;2022-10-20T05:11:11;98942.47;;;5.93;76.74
64821;BME280;51256;55.654;37.264;2022-10-20T05:13:37;98966.44;;;6.01;76.69
64821;BME280;51256;55.654;37.264;2022-10-20T05:16:02;98966.63;;;5.98;76.64
64821;BME280;51256;55.654;37.264;2022-10-20T05:18:28;98963.22;;;5.86;76.78
64821;BME280;51256;55.654;37.264;2022-10-20T05:20:54;98967.47;;;5.77;77.28
64821;BME280;51256;55.654;37.264;2022-10-20T05:23:20;98976.91;;;5.80;77.76
64821;BME280;51256;55.654;37.264;2022-10-20T05:25:45;98954.66;;;5.73;76.89
64821;BME280;51256;55.654;37.264;2022-10-20T05:28:11;98971.19;;;5.75;77.31
64821;BME280;51256;55.654;37.264;2022-10-20T05:30:37;98980.72;;;5.76;77.36
64821;BME280;51256;55.654;37.264;2022-10-20T05:33:03;98978.41;;;5.61;77.90
64821;BME280;51256;55.654;37.264;2022-10-20T05:35:28;98986.66;;;5.57;78.33
64821;BME280;51256;55.654;37.264;2022-10-20T05:37:54;98996.50;;;5.55;78.48
64821;BME280;51256;55.654;37.264;2022-10-20T05:40:20;98997.19;;;5.57;78.08
64821;BME280;51256;55.654;37.264;2022-10-20T05:42:46;98979.03;;;5.54;78.04
64821;BME280;51256;55.654;37.264;2022-10-20T05:45:12;98986.66;;;5.57;78.51
64821;BME280;51256;55.654;37.264;2022-10-20T05:47:37;98995.97;;;5.61;78.83
64821;BME280;51256;55.654;37.264;2022-10-20T05:50:03;99005.91;;;5.68;78.58
64821;BME280;51256;55.654;37.264;2022-10-20T05:52:29;99007.47;;;5.71;77.93
64821;BME280;51256;55.654;37.264;2022-10-20T05:54:54;99001.13;;;5.74;78.19
64821;BME280;51256;55.654;37.264;2022-10-20T05:57:20;99010.91;;;5.72;78.30
64821;BME280;51256;55.654;37.264;2022-10-20T05:59:45;99014.97;;;5.76;78.26
64821;BME280;51256;55.654;37.264;2022-10-20T06:02:11;98999.75;;;5.79;78.03
64821;BME280;51256;55.654;37.264;2022-10-20T06:04:37;99009.69;;;5.76;78.11
64821;BME280;51256;55.654;37.264;2022-10-20T06:07:03;99017.00;;;5.83;78.40
64821;BME280;51256;55.654;37.264;2022-10-20T06:09:30;99011.34;;;5.88;78.29
64821;BME280;51256;55.654;37.264;2022-10-20T06:11:57;99013.03;;;5.89;77.90
64821;BME280;51256;55.654;37.264;2022-10-20T06:14:22;99014.56;;;5.92;77.69
64821;BME280;51256;55.654;37.264;2022-10-20T06:16:51;99019.50;;;5.85;77.19
64821;BME280;51256;55.654;37.264;2022-10-20T06:19:16;99014.41;;;5.72;76.47
64821;BME280;51256;55.654;37.264;2022-10-20T06:21:42;99030.53;;;5.79;76.68
64821;BME280;51256;55.654;37.264;2022-10-20T06:24:08;99027.16;;;5.88;75.42
64821;BME280;51256;55.654;37.264;2022-10-20T06:26:35;99030.50;;;5.90;75.38
64821;BME280;51256;55.654;37.264;2022-10-20T06:29:03;99038.41;;;5.90;75.53
64821;BME280;51256;55.654;37.264;2022-10-20T06:31:39;99032.56;;;5.87;74.84
64821;BME280;51256;55.654;37.264;2022-10-20T06:34:07;99032.44;;;5.77;74.77
64821;BME280;51256;55.654;37.264;2022-10-20T06:36:36;99039.31;;;5.68;74.53
64821;BME280;51256;55.654;37.264;2022-10-20T06:39:03;99038.97;;;5.61;74.26
64821;BME280;51256;55.654;37.264;2022-10-20T06:41:29;99037.66;;;5.56;73.94
64821;BME280;51256;55.654;37.264;2022-10-20T06:43:55;99044.09;;;5.63;73.76
64821;BME280;51256;55.654;37.264;2022-10-20T06:46:28;99041.94;;;5.68;73.40
64821;BME280;51256;55.654;37.264;2022-10-20T06:48:54;99036.78;;;5.66;72.88
64821;BME280;51256;55.654;37.264;2022-10-20T06:51:20;99043.03;;;5.65;72.91
64821;BME280;51256;55.654;37.264;2022-10-20T06:53:47;99032.28;;;5.57;72.77
64821;BME280;51256;55.654;37.264;2022-10-20T06:56:18;99034.88;;;5.68;72.45
64821;BME280;51256;55.654;37.264;2022-10-20T06:58:46;99046.03;;;5.72;72.49
64821;BME280;51256;55.654;37.264;2022-10-20T07:01:16;99029.22;;;5.73;72.67
64821;BME280;51256;55.654;37.264;2022-10-20T07:03:43;99040.31;;;5.88;72.62
64821;BME280;51256;55.654;37.264;2022-10-20T07:06:12;99044.00;;;5.97;72.07
64821;BME280;51256;55.654;37.264;2022-10-20T07:08:38;99050.63;;;6.03;71.48
64821;BME280;51256;55.654;37.264;2022-10-20T07:11:11;99048.44;;;6.08;71.05
64821;BME280;51256;55.654;37.264;2022-10-20T07:13:38;99053.94;;;6.05;70.25
64821;BME280;51256;55.654;37.264;2022-10-20T07:16:05;99061.50;;;6.09;70.53
64821;BME280;51256;55.654;37.264;2022-10-20T07:18:31;99044.13;;;6.07;69.81
64821;BME280;51256;55.654;37.264;2022-10-20T07:20:58;99055.88;;;6.03;69.16
64821;BME280;51256;55.654;37.264;2022-10-20T07:23:25;99060.06;;;6.05;69.16
64821;BME280;51256;55.654;37.264;2022-10-20T07:25:50;99050.63;;;6.03;68.71
64821;BME280;51256;55.654;37.264;2022-10-20T07:28:16;99067.38;;;6.02;67.95
64821;BME280;51256;55.654;37.264;2022-10-20T07:30:41;99066.66;;;5.99;68.26
64821;BME280;51256;55.654;37.264;2022-10-20T07:33:08;99066.44;;;6.03;67.30
64821;BME280;51256;55.654;37.264;2022-10-20T07:35:34;99068.69;;;6.07;68.28
64821;BME280;51256;55.654;37.264;2022-10-20T07:38:00;99078.03;;;6.11;67.45
64821;BME280;51256;55.654;37.264;2022-10-20T07:40:26;99079.44;;;6.15;67.95
64821;BME280;51256;55.654;37.264;2022-10-20T07:42:52;99080.03;;;6.19;68.30
64821;BME280;51256;55.654;37.264;2022-10-20T07:45:17;99074.25;;;6.25;67.97
64821;BME280;51256;55.654;37.264;2022-10-20T07:47:43;99070.16;;;6.32;67.62
64821;BME280;51256;55.654;37.264;2022-10-20T07:50:09;99074.66;;;6.42;67.69
64821;BME280;51256;55.654;37.264;2022-10-20T07:52:34;99071.44;;;6.59;67.09
64821;BME280;51256;55.654;37.264;2022-10-20T07:55:00;99080.75;;;7.06;66.82
64821;BME280;51256;55.654;37.264;2022-10-20T07:57:25;99074.28;;;7.51;66.22
64821;BME280;51256;55.654;37.264;2022-10-20T07:59:50;99073.78;;;7.67;65.15
64821;BME280;51256;55.654;37.264;2022-10-20T08:02:16;99073.38;;;7.81;64.68
64821;BME280;51256;55.654;37.264;2022-10-20T08:04:42;99081.88;;;7.94;64.35
64821;BME280;51256;55.654;37.264;2022-10-20T08:07:11;99099.16;;;7.89;62.40
64821;BME280;51256;55.654;37.264;2022-10-20T08:09:37;99097.16;;;7.71;61.96
64821;BME280;51256;55.654;37.264;2022-10-20T08:12:03;99076.91;;;7.51;61.92
64821;BME280;51256;55.654;37.264;2022-10-20T08:14:29;99087.63;;;7.49;62.12
64821;BME280;51256;55.654;37.264;2022-10-20T08:16:58;99090.09;;;7.41;61.71
64821;BME280;51256;55.654;37.264;2022-10-20T08:19:24;99086.38;;;7.53;61.66
64821;BME280;51256;55.654;37.264;2022-10-20T08:21:49;99090.16;;;7.60;61.41
64821;BME280;51256;55.654;37.264;2022-10-20T08:24:15;99097.56;;;7.67;62.08
64821;BME280;51256;55.654;37.264;2022-10-20T08:26:40;99097.88;;;7.83;61.83
64821;BME280;51256;55.654;37.264;2022-10-20T08:29:06;99096.50;;;7.89;61.54
64821;BME280;51256;55.654;37.264;2022-10-20T08:31:31;99079.47;;;7.72;61.05
64821;BME280;51256;55.654;37.264;2022-10-20T08:33:57;99099.09;;;7.69;60.76
64821;BME280;51256;55.654;37.264;2022-10-20T08:36:23;99109.03;;;7.56;59.74
64821;BME280;51256;55.654;37.264;2022-10-20T08:38:49;99112.88;;;7.42;60.74
64821;BME280;51256;55.654;37.264;2022-10-20T08:41:21;99098.44;;;7.36;61.08
64821;BME280;51256;55.654;37.264;2022-10-20T08:43:50;99112.06;;;7.41;60.46
64821;BME280;51256;55.654;37.264;2022-10-20T08:46:18;99115.81;;;7.39;60.70
64821;BME280;51256;55.654;37.264;2022-10-20T08:48:45;99103.19;;;7.52;60.93
64821;BME280;51256;55.654;37.264;2022-10-20T08:51:20;99097.91;;;7.52;60.72
64821;BME280;51256;55.654;37.264;2022-10-20T08:53:48;99110.59;;;7.58;60.48
64821;BME280;51256;55.654;37.264;2022-10-20T08:56:16;99111.06;;;7.73;59.45
64821;BME280;51256;55.654;37.264;2022-10-20T08:58:44;99104.75;;;7.65;59.57
64821;BME280;51256;55.654;37.264;2022-10-20T09:01:18;99116.75;;;7.78;59.55
64821;BME280;51256;55.654;37.264;2022-10-20T09:03:48;99112.66;;;7.55;59.23
64821;BME280;51256;55.654;37.264;2022-10-20T09:06:15;99126.03;;;7.32;58.89
64821;BME280;51256;55.654;37.264;2022-10-20T09:08:42;99128.16;;;7.07;59.63
64821;BME280;51256;55.654;37.264;2022-10-20T09:11:13;99118.94;;;7.02;59.90
64821;BME280;51256;55.654;37.264;2022-10-20T09:13:40;99128.97;;;7.08;59.91
64821;BME280;51256;55.654;37.264;2022-10-20T09:16:12;99126.28;;;6.98;59.50
64821;BME280;51256;55.654;37.264;2022-10-20T09:18:39;99136.13;;;6.96;60.23
64821;BME280;51256;55.654;37.264;2022-10-20T09:21:16;99132.28;;;7.00;59.86
64821;BME280;51256;55.654;37.264;2022-10-20T09:23:48;99133.31;;;7.09;60.61
64821;BME280;51256;55.654;37.264;2022-10-20T09:31:37;99143.66;;;7.22;60.55
64821;BME280;51256;55.654;37.264;2022-10-20T09:34:19;99140.63;;;7.26;60.54
64821;BME280;51256;55.654;37.264;2022-10-20T09:36:46;99141.66;;;7.14;60.16
64821;BME280;51256;55.654;37.264;2022-10-20T09:39:41;99145.53;;;7.10;60.85
64821;BME280;51256;55.654;37.264;2022-10-20T09:42:20;99143.66;;;7.01;60.95
64821;BME280;51256;55.654;37.264;2022-10-20T09:45:17;99148.13;;;7.00;60.65
64821;BME280;51256;55.654;37.264;2022-10-20T09:47:49;99128.78;;;6.78;60.90
64821;BME280;51256;55.654;37.264;2022-10-20T09:50:24;99135.34;;;6.84;60.43
64821;BME280;51256;55.654;37.264;2022-10-20T09:52:51;99143.13;;;6.86;60.60
64821;BME280;51256;55.654;37.264;2022-10-20T09:55:28;99142.63;;;6.92;60.99
64821;BME280;51256;55.654;37.264;2022-10-20T09:57:55;99145.03;;;6.95;60.29
64821;BME280;51256;55.654;37.264;2022-10-20T10:00:25;99135.44;;;6.94;60.69
64821;BME280;51256;55.654;37.264;2022-10-20T10:08:50;99138.88;;;7.16;60.46
64821;BME280;51256;55.654;37.264;2022-10-20T10:11:21;99143.41;;;7.04;60.14
64821;BME280;51256;55.654;37.264;2022-10-20T10:13:49;99153.31;;;6.90;59.98
64821;BME280;51256;55.654;37.264;2022-10-20T10:16:18;99154.41;;;6.67;60.82
64821;BME280;51256;55.654;37.264;2022-10-20T10:18:55;99161.41;;;6.56;61.28
64821;BME280;51256;55.654;37.264;2022-10-20T10:21:22;99161.03;;;6.49;61.00
64821;BME280;51256;55.654;37.264;2022-10-20T10:24:02;99150.88;;;6.45;61.42
64821;BME280;51256;55.654;37.264;2022-10-20T10:26:33;99155.91;;;6.48;61.51
64821;BME280;51256;55.654;37.264;2022-10-20T10:28:59;99152.16;;;6.51;61.14
64821;BME280;51256;55.654;37.264;2022-10-20T10:31:25;99152.41;;;6.59;60.16
64821;BME280;51256;55.654;37.264;2022-10-20T10:36:39;99161.66;;;6.74;60.10
64821;BME280;51256;55.654;37.264;2022-10-20T10:39:10;99154.84;;;6.93;60.66
64821;BME280;51256;55.654;37.264;2022-10-20T10:44:09;99156.31;;;7.28;60.20
64821;BME280;51256;55.654;37.264;2022-10-20T10:46:42;99150.66;;;7.33;59.49
64821;BME280;51256;55.654;37.264;2022-10-20T10:49:32;99158.09;;;7.18;59.71
64821;BME280;51256;55.654;37.264;2022-10-20T10:57:30;99158.38;;;6.82;60.58
64821;BME280;51256;55.654;37.264;2022-10-20T10:59:59;99162.88;;;6.70;60.46
64821;BME280;51256;55.654;37.264;2022-10-20T11:08:31;99161.47;;;6.66;61.80
64821;BME280;51256;55.654;37.264;2022-10-20T11:16:36;99165.06;;;7.28;59.96
64821;BME280;51256;55.654;37.264;2022-10-20T11:27:30;99151.94;;;6.96;60.11
64821;BME280;51256;55.654;37.264;2022-10-20T11:30:10;99161.81;;;6.94;59.66
64821;BME280;51256;55.654;37.264;2022-10-20T11:32:50;99171.94;;;7.10;59.91
64821;BME280;51256;55.654;37.264;2022-10-20T11:38:54;99170.94;;;7.11;60.20
64821;BME280;51256;55.654;37.264;2022-10-20T11:41:05;99176.34;;;7.09;59.68
64821;BME280;51256;55.654;37.264;2022-10-20T11:43:38;99176.94;;;7.13;59.74
64821;BME280;51256;55.654;37.264;2022-10-20T11:48:43;99179.19;;;6.96;60.34
64821;BME280;51256;55.654;37.264;2022-10-20T11:56:22;99173.78;;;7.19;59.97
64821;BME280;51256;55.654;37.264;2022-10-20T12:00:09;99172.75;;;7.32;60.19
64821;BME280;51256;55.654;37.264;2022-10-20T12:08:18;99189.13;;;7.04;58.56
64821;BME280;51256;55.654;37.264;2022-10-20T12:13:40;99192.69;;;6.82;58.80
64821;BME280;51256;55.654;37.264;2022-10-20T12:15:47;99178.22;;;6.76;58.56
64821;BME280;51256;55.654;37.264;2022-10-20T12:18:23;99170.16;;;6.78;58.46
64821;BME280;51256;55.654;37.264;2022-10-20T12:20:52;99185.03;;;6.79;58.60
64821;BME280;51256;55.654;37.264;2022-10-20T12:28:54;99184.97;;;6.69;58.70
64821;BME280;51256;55.654;37.264;2022-10-20T12:31:19;99184.41;;;6.87;59.20
64821;BME280;51256;55.654;37.264;2022-10-20T12:38:53;99197.47;;;7.09;58.66
64821;BME280;51256;55.654;37.264;2022-10-20T12:41:33;99194.22;;;6.85;59.59
64821;BME280;51256;55.654;37.264;2022-10-20T12:44:26;99185.50;;;6.84;59.91
64821;BME280;51256;55.654;37.264;2022-10-20T12:47:02;99184.72;;;6.93;60.15
64821;BME280;51256;55.654;37.264;2022-10-20T12:49:32;99191.88;;;7.03;60.17
64821;BME280;51256;55.654;37.264;2022-10-20T12:52:00;99199.16;;;7.10;60.12
64821;BME280;51256;55.654;37.264;2022-10-20T12:54:37;99195.09;;;7.06;59.83
64821;BME280;51256;55.654;37.264;2022-10-20T12:59:50;99206.34;;;7.08;59.75
64821;BME280;51256;55.654;37.264;2022-10-20T13:10:32;99220.66;;;7.06;59.90
64821;BME280;51256;55.654;37.264;2022-10-20T13:18:00;99215.06;;;6.99;60.59
64821;BME280;51256;55.654;37.264;2022-10-20T13:23:53;99220.72;;;6.94;60.22
64821;BME280;51256;55.654;37.264;2022-10-20T13:28:56;99225.66;;;6.88;60.44
64821;BME280;51256;55.654;37.264;2022-10-20T13:31:45;99230.63;;;6.70;60.81
64821;BME280;51256;55.654;37.264;2022-10-20T13:42:04;99231.56;;;5.68;63.35
64821;BME280;51256;55.654;37.264;2022-10-20T13:45:05;99243.66;;;5.71;63.96
64821;BME280;51256;55.654;37.264;2022-10-20T13:50:11;99248.72;;;5.85;64.26
64821;BME280;51256;55.654;37.264;2022-10-20T13:52:41;99247.63;;;5.88;64.01
64821;BME280;51256;55.654;37.264;2022-10-20T13:55:15;99252.78;;;5.89;64.29
64821;BME280;51256;55.654;37.264;2022-10-20T13:57:54;99251.69;;;5.92;64.18
64821;BME280;51256;55.654;37.264;2022-10-20T14:00:29;99254.47;;;5.90;64.28
64821;BME280;51256;55.654;37.264;2022-10-20T14:05:23;99257.56;;;5.84;63.95
64821;BME280;51256;55.654;37.264;2022-10-20T14:07:49;99251.34;;;5.74;64.88
64821;BME280;51256;55.654;37.264;2022-10-20T14:10:25;99266.78;;;5.78;64.37
64821;BME280;51256;55.654;37.264;2022-10-20T14:12:54;99264.38;;;5.75;65.03
64821;BME280;51256;55.654;37.264;2022-10-20T14:15:25;99264.03;;;5.68;64.83
64821;BME280;51256;55.654;37.264;2022-10-20T14:17:58;99251.06;;;5.54;65.36
64821;BME280;51256;55.654;37.264;2022-10-20T14:20:25;99260.16;;;5.50;65.11
64821;BME280;51256;55.654;37.264;2022-10-20T14:22:52;99266.72;;;5.44;65.84
64821;BME280;51256;55.654;37.264;2022-10-20T14:25:19;99251.16;;;5.30;66.07
64821;BME280;51256;55.654;37.264;2022-10-20T14:27:45;99258.59;;;5.36;66.26
64821;BME280;51256;55.654;37.264;2022-10-20T14:30:16;99257.69;;;5.24;65.65
64821;BME280;51256;55.654;37.264;2022-10-20T14:32:43;99257.66;;;5.13;66.75
64821;BME280;51256;55.654;37.264;2022-10-20T14:35:27;99261.81;;;5.04;66.38
64821;BME280;51256;55.654;37.264;2022-10-20T14:38:35;99264.19;;;4.96;66.72
64821;BME280;51256;55.654;37.264;2022-10-20T14:41:03;99262.97;;;4.89;66.90
64821;BME280;51256;55.654;37.264;2022-10-20T14:43:51;99266.53;;;4.87;67.48
64821;BME280;51256;55.654;37.264;2022-10-20T14:46:32;99267.66;;;4.96;67.59
64821;BME280;51256;55.654;37.264;2022-10-20T14:48:59;99278.34;;;5.06;67.26
64821;BME280;51256;55.654;37.264;2022-10-20T14:51:39;99282.09;;;5.15;67.17
64821;BME280;51256;55.654;37.264;2022-10-20T14:54:22;99285.22;;;5.20;66.97
64821;BME280;51256;55.654;37.264;2022-10-20T14:56:51;99285.66;;;5.14;67.27
64821;BME280;51256;55.654;37.264;2022-10-20T14:59:19;99285.03;;;5.10;67.29
64821;BME280;51256;55.654;37.264;2022-10-20T15:04:39;99283.16;;;5.12;66.94
64821;BME280;51256;55.654;37.264;2022-10-20T15:07:09;99286.47;;;5.14;66.82
64821;BME280;51256;55.654;37.264;2022-10-20T15:09:42;99289.84;;;5.16;67.49
64821;BME280;51256;55.654;37.264;2022-10-20T15:12:30;99275.09;;;5.02;67.02
64821;BME280;51256;55.654;37.264;2022-10-20T15:15:06;99292.72;;;4.89;67.41
64821;BME280;51256;55.654;37.264;2022-10-20T15:17:41;99294.13;;;4.82;68.01
64821;BME280;51256;55.654;37.264;2022-10-20T15:23:17;99303.69;;;4.59;68.56
64821;BME280;51256;55.654;37.264;2022-10-20T15:25:57;99297.06;;;4.53;68.76